Time;durP1;ratioP1;P1;durP2;ratioP2;P2;SDS_P1;SDS_P2;PMS_P1;PMS_P2;Temp;Humidity;BMP_temperature;BMP_pressure;BME280_temperature;BME280_humidity;BME280_pressure;Samples;Min_cycle;Max_cycle;Signal;HPM_P1;HPM_P2
2023/01/24 06:58:10;;;;;;;59.70;36.30;;;4.40;99.90;;;;;;5999205;23;20047;-91
2023/01/24 07:00:37;;;;;;;61.28;37.95;;;4.70;99.90;;;;;;4951250;29;20044;-91
2023/01/24 07:03:09;;;;;;;56.65;39.03;;;5.00;99.90;;;;;;4938888;29;20055;-90
2023/01/24 07:05:38;;;;;;;55.15;37.40;;;5.50;99.90;;;;;;4939240;29;20040;-89
2023/01/24 07:08:06;;;;;;;51.60;36.55;;;6.10;99.90;;;;;;4939422;29;20119;-91
2023/01/24 07:10:33;;;;;;;55.55;37.85;;;6.40;99.90;;;;;;4904657;29;20028;-90
2023/01/24 07:13:00;;;;;;;48.63;36.03;;;6.50;99.90;;;;;;4904542;29;20032;-91
2023/01/24 07:15:27;;;;;;;47.53;34.70;;;6.80;99.90;;;;;;4904362;29;20111;-90
2023/01/24 07:17:54;;;;;;;41.58;34.72;;;7.10;99.90;;;;;;4920062;29;20035;-91
2023/01/24 07:20:22;;;;;;;47.28;37.38;;;7.20;99.90;;;;;;4919764;29;20036;-91
2023/01/24 07:22:49;;;;;;;54.53;38.17;;;7.40;99.90;;;;;;4919854;29;20024;-90
2023/01/24 07:25:19;;;;;;;50.85;38.05;;;7.50;99.90;;;;;;4919726;29;20028;-89
2023/01/24 07:27:46;;;;;;;49.75;42.08;;;7.70;99.90;;;;;;4920155;29;20088;-90
2023/01/24 07:30:14;;;;;;;50.55;43.35;;;7.90;99.90;;;;;;4938377;29;20039;-89
2023/01/24 07:32:40;;;;;;;41.05;36.67;;;8.10;99.90;;;;;;4923892;29;20044;-92
2023/01/24 07:35:08;;;;;;;41.72;36.65;;;8.30;99.90;;;;;;4921813;29;20118;-93
2023/01/24 07:37:35;;;;;;;37.72;33.88;;;8.60;99.90;;;;;;4906171;29;20044;-93
2023/01/24 07:40:03;;;;;;;36.70;32.50;;;8.80;99.90;;;;;;4921522;29;20040;-91
2023/01/24 07:42:30;;;;;;;35.88;31.98;;;9.00;99.90;;;;;;4905929;29;20405;-91
2023/01/24 07:44:59;;;;;;;34.67;30.80;;;9.30;99.90;;;;;;4922413;29;20051;-89
2023/01/24 07:47:28;;;;;;;32.50;29.30;;;9.50;99.90;;;;;;4906695;29;20036;-91
2023/01/24 07:49:58;;;;;;;33.40;29.25;;;9.70;99.90;;;;;;4921362;29;20483;-90
2023/01/24 07:52:28;;;;;;;28.88;25.88;;;9.90;99.90;;;;;;4905680;29;20035;-90
2023/01/24 07:54:55;;;;;;;28.27;25.55;;;10.10;99.90;;;;;;4905653;29;20027;-90
2023/01/24 07:57:25;;;;;;;24.70;22.40;;;10.30;99.90;;;;;;4921374;29;20036;-90
2023/01/24 07:59:52;;;;;;;24.45;22.15;;;10.50;99.90;;;;;;4921522;29;20050;-92
2023/01/24 08:02:19;;;;;;;24.88;22.58;;;10.80;99.90;;;;;;4921842;29;20596;-91
2023/01/24 08:04:46;;;;;;;25.35;22.88;;;10.90;99.90;;;;;;4922240;29;20078;-91
2023/01/24 08:07:16;;;;;;;32.95;29.77;;;11.10;99.90;;;;;;4905790;29;20127;-90
2023/01/24 08:09:43;;;;;;;28.25;25.42;;;11.20;99.90;;;;;;4905759;29;20552;-91
2023/01/24 08:12:10;;;;;;;28.38;25.15;;;11.30;99.90;;;;;;4909306;29;20473;-91
2023/01/24 08:14:37;;;;;;;30.50;27.30;;;11.40;99.90;;;;;;4921947;29;20050;-91
2023/01/24 08:17:05;;;;;;;28.50;25.58;;;11.80;99.90;;;;;;4922139;29;20110;-89
2023/01/24 08:19:35;;;;;;;26.08;23.75;;;12.30;99.90;;;;;;4922049;29;20035;-90
2023/01/24 08:22:02;;;;;;;26.23;23.65;;;12.40;99.90;;;;;;4921541;29;20042;-90
2023/01/24 08:24:29;;;;;;;28.48;25.67;;;12.80;99.90;;;;;;4902913;29;20036;-90
2023/01/24 08:26:56;;;;;;;29.02;25.85;;;12.60;99.90;;;;;;4903022;29;20028;-89
2023/01/24 08:29:23;;;;;;;28.77;25.80;;;12.60;99.90;;;;;;4903064;29;20032;-90
2023/01/24 08:31:50;;;;;;;29.00;26.10;;;12.60;99.90;;;;;;4903498;29;20050;-90
2023/01/24 08:34:18;;;;;;;28.48;25.65;;;12.70;99.90;;;;;;4903099;29;20032;-92
2023/01/24 08:36:45;;;;;;;28.77;25.73;;;12.70;99.90;;;;;;4903208;29;20568;-91
2023/01/24 08:39:12;;;;;;;36.13;23.27;;;12.90;99.90;;;;;;4903034;29;20040;-91
2023/01/24 08:41:38;;;;;;;26.13;23.48;;;13.00;99.90;;;;;;4902905;29;20040;-91
2023/01/24 08:44:05;;;;;;;26.05;23.52;;;13.10;99.90;;;;;;4902939;29;20031;-92
2023/01/24 08:46:32;;;;;;;21.35;19.58;;;13.10;99.90;;;;;;4902731;29;20036;-91
2023/01/24 08:48:59;;;;;;;25.27;22.55;;;12.90;99.90;;;;;;4902795;29;20032;-92
2023/01/24 08:51:26;;;;;;;26.17;23.80;;;13.10;99.90;;;;;;4903180;29;20091;-92
2023/01/24 08:53:53;;;;;;;28.30;25.48;;;13.00;99.90;;;;;;4902472;29;20030;-91
2023/01/24 08:56:20;;;;;;;33.28;29.52;;;13.00;99.90;;;;;;4902417;29;20048;-91
2023/01/24 08:58:47;;;;;;;27.88;24.88;;;13.00;99.90;;;;;;4902027;29;20040;-91
2023/01/24 09:01:13;;;;;;;25.55;22.90;;;13.10;99.90;;;;;;4902328;29;20040;-94
2023/01/24 09:03:40;;;;;;;21.83;19.92;;;13.00;99.90;;;;;;4902241;29;20091;-90
2023/01/24 09:06:07;;;;;;;21.75;19.70;;;13.10;99.90;;;;;;4903721;29;20028;-90
2023/01/24 09:08:35;;;;;;;21.35;19.58;;;13.00;99.90;;;;;;4902353;29;20039;-90
2023/01/24 09:11:02;;;;;;;20.92;19.17;;;13.00;99.90;;;;;;4902134;29;20032;-92
2023/01/24 09:13:31;;;;;;;21.30;19.60;;;13.10;99.90;;;;;;4902183;29;20401;-93
2023/01/24 09:15:59;;;;;;;19.85;18.30;;;13.20;99.90;;;;;;4903711;29;20036;-91
2023/01/24 09:18:26;;;;;;;19.25;17.48;;;13.40;99.90;;;;;;4903177;29;20027;-91
2023/01/24 09:20:53;;;;;;;18.50;17.10;;;13.40;99.90;;;;;;4902017;29;20095;-92
2023/01/24 09:23:19;;;;;;;18.88;17.30;;;13.50;99.90;;;;;;4901981;29;20478;-91
2023/01/24 09:25:51;;;;;;;18.63;17.23;;;13.70;99.90;;;;;;4901415;29;20087;-91
2023/01/24 09:28:20;;;;;;;17.67;16.42;;;13.80;99.90;;;;;;4901735;29;20393;-90
2023/01/24 09:30:50;;;;;;;15.52;14.52;;;13.90;99.90;;;;;;4901531;29;20163;-92
2023/01/24 09:33:19;;;;;;;16.90;15.70;;;14.00;99.90;;;;;;4901611;29;20032;-90
2023/01/24 09:35:58;;;;;;;15.60;14.70;;;14.10;99.90;;;;;;4901478;29;20032;-93
2023/01/24 09:38:27;;;;;;;14.50;13.63;;;14.20;99.90;;;;;;4901731;29;20032;-92
2023/01/24 09:41:28;;;;;;;13.98;12.95;;;14.30;99.90;;;;;;4901691;29;20503;-92
2023/01/24 09:44:11;;;;;;;13.50;12.90;;;13.90;99.90;;;;;;4886067;29;20040;-90
2023/01/24 09:46:49;;;;;;;13.15;12.55;;;13.90;99.90;;;;;;4901440;29;20163;-90
2023/01/24 09:49:37;;;;;;;13.73;13.10;;;14.00;99.90;;;;;;4901796;29;20118;-94
2023/01/24 09:52:10;;;;;;;15.05;14.02;;;14.10;99.90;;;;;;4901435;29;20028;-89
2023/01/24 09:55:03;;;;;;;14.88;13.98;;;14.20;99.90;;;;;;4901497;29;20073;-93
2023/01/24 09:57:55;;;;;;;15.23;14.50;;;14.40;99.90;;;;;;4894007;29;20047;-91
2023/01/24 10:00:27;;;;;;;15.77;15.07;;;14.20;99.90;;;;;;4901340;29;20069;-92
2023/01/24 10:02:59;;;;;;;15.20;14.40;;;14.20;99.90;;;;;;4901677;29;20060;-92
2023/01/24 10:05:41;;;;;;;15.57;14.68;;;14.40;99.90;;;;;;4901873;29;20028;-91
2023/01/24 10:08:28;;;;;;;14.95;14.05;;;14.60;99.90;;;;;;4901657;29;20398;-92
2023/01/24 10:11:38;;;;;;;16.10;15.15;;;14.40;99.90;;;;;;4908262;29;20028;-90
2023/01/24 10:14:33;;;;;;;16.40;15.35;;;14.40;99.90;;;;;;4882999;29;20116;-90
2023/01/24 10:17:12;;;;;;;16.70;15.63;;;14.30;99.90;;;;;;4920699;29;20274;-90
2023/01/24 10:20:11;;;;;;;16.33;15.40;;;14.10;99.90;;;;;;4936081;29;20039;-91
2023/01/24 10:23:02;;;;;;;17.25;16.10;;;14.20;99.90;;;;;;4936076;29;20044;-91
2023/01/24 10:26:03;;;;;;;17.17;16.13;;;14.30;99.90;;;;;;4935898;29;20087;-90
2023/01/24 10:28:38;;;;;;;17.50;16.30;;;14.50;99.90;;;;;;4936049;29;20043;-92
2023/01/24 10:31:14;;;;;;;17.02;16.23;;;14.80;99.90;;;;;;4920079;29;20024;-90
2023/01/24 10:34:19;;;;;;;17.30;16.33;;;14.70;99.90;;;;;;4920065;29;20083;-93
2023/01/24 10:36:50;;;;;;;18.00;16.83;;;14.60;99.90;;;;;;4934543;29;20040;-93
2023/01/24 10:39:17;;;;;;;17.38;16.40;;;14.70;99.90;;;;;;4939388;29;20032;-91
2023/01/24 10:41:44;;;;;;;16.90;16.10;;;14.70;99.90;;;;;;4923495;29;20134;-90
2023/01/24 10:44:15;;;;;;;16.70;15.80;;;14.90;99.90;;;;;;4939354;29;20094;-92
2023/01/24 10:47:01;;;;;;;16.80;16.00;;;14.90;99.90;;;;;;4923735;29;20191;-90
2023/01/24 10:49:36;;;;;;;17.63;16.73;;;15.00;99.90;;;;;;4924897;29;20039;-90
2023/01/24 10:52:23;;;;;;;17.08;16.17;;;14.90;99.90;;;;;;4924035;29;20055;-93
2023/01/24 10:55:01;;;;;;;18.17;17.08;;;15.00;99.90;;;;;;4923651;29;20043;-92
2023/01/24 10:57:39;;;;;;;18.63;17.42;;;15.10;99.90;;;;;;4941009;29;20063;-90
2023/01/24 11:00:27;;;;;;;18.02;17.10;;;15.30;99.90;;;;;;4941995;29;20051;-91
2023/01/24 11:03:25;;;;;;;18.05;16.95;;;15.70;99.90;;;;;;4923107;29;20039;-91
2023/01/24 11:05:55;;;;;;;18.60;17.33;;;15.90;99.90;;;;;;4923040;29;20031;-91
2023/01/24 11:08:34;;;;;;;18.85;17.75;;;16.00;99.90;;;;;;4923231;29;20064;-90
2023/01/24 11:11:03;;;;;;;19.35;18.25;;;16.20;99.90;;;;;;4923014;29;20135;-92
2023/01/24 11:13:37;;;;;;;18.80;17.55;;;16.40;99.90;;;;;;4923069;29;20062;-90
2023/01/24 11:16:21;;;;;;;18.17;17.08;;;16.50;99.90;;;;;;4922735;29;20122;-92
2023/01/24 11:18:52;;;;;;;;;;;16.50;99.90;;;;;;4923287;29;20070;-91
2023/01/24 11:21:20;;;;;;;18.45;17.48;;;16.40;99.90;;;;;;4923070;29;19974;-91
2023/01/24 11:24:05;;;;;;;19.30;17.92;;;16.10;99.90;;;;;;4922895;29;20087;-90
2023/01/24 11:26:38;;;;;;;;;;;16.00;99.90;;;;;;4938898;29;20149;-91
2023/01/24 11:29:25;;;;;;;18.15;17.25;;;15.80;99.90;;;;;;4923047;29;19966;-92
2023/01/24 11:31:57;;;;;;;17.88;16.88;;;16.10;99.90;;;;;;4918818;29;20028;-90
2023/01/24 11:34:45;;;;;;;18.25;17.25;;;16.30;99.90;;;;;;4903619;29;20047;-92
2023/01/24 11:37:21;;;;;;;18.40;17.30;;;16.10;99.90;;;;;;4919239;29;20055;-93
2023/01/24 11:40:07;;;;;;;19.42;18.25;;;16.10;99.90;;;;;;4919413;29;20084;-91
2023/01/24 11:42:58;;;;;;;18.60;17.60;;;16.30;99.90;;;;;;4919326;29;20040;-91
2023/01/24 11:45:32;;;;;;;19.52;18.38;;;16.40;99.90;;;;;;4919326;29;20092;-92
2023/01/24 11:47:58;;;;;;;17.77;16.88;;;16.60;99.90;;;;;;4919110;29;20078;-91
2023/01/24 11:50:53;;;;;;;17.95;16.95;;;16.80;99.90;;;;;;4919413;29;20056;-90
2023/01/24 11:53:23;;;;;;;;;;;16.50;99.90;;;;;;4935571;29;20031;-90
2023/01/24 11:56:08;;;;;;;19.80;18.20;;;16.10;99.90;;;;;;4922611;29;19915;-93
2023/01/24 11:58:57;;;;;;;18.75;17.23;;;16.00;99.90;;;;;;4938217;29;20055;-91
2023/01/24 12:01:59;;;;;;;17.73;16.77;;;15.80;99.90;;;;;;4906702;29;20046;-91
2023/01/24 12:04:59;;;;;;;43.78;29.50;;;15.60;99.90;;;;;;4906707;29;20147;-91
2023/01/24 12:07:41;;;;;;;18.15;16.73;;;14.90;99.90;;;;;;4922946;29;20032;-90
2023/01/24 12:10:42;;;;;;;16.35;15.15;;;14.70;99.90;;;;;;4906890;29;20127;-90
2023/01/24 12:13:56;;;;;;;15.15;14.25;;;14.50;99.90;;;;;;4918457;29;20067;-89
2023/01/24 12:16:42;;;;;;;;;;;14.60;99.90;;;;;;4850463;29;20045;-90
2023/01/24 12:19:46;;;;;;;15.00;14.20;;;14.80;99.90;;;;;;4849473;29;19912;-89
2023/01/24 12:22:21;;;;;;;15.07;14.02;;;14.80;99.90;;;;;;4849123;29;20041;-89
2023/01/24 12:25:30;;;;;;;14.10;13.40;;;14.50;99.90;;;;;;4849612;29;20049;-89
2023/01/24 12:28:05;;;;;;;14.30;13.50;;;14.30;99.90;;;;;;4864017;29;20041;-91
2023/01/24 12:30:47;;;;;;;15.13;14.32;;;14.30;99.90;;;;;;4864764;29;20466;-90
2023/01/24 12:33:33;;;;;;;15.00;14.20;;;14.50;99.90;;;;;;4849476;29;20438;-89
2023/01/24 12:36:19;;;;;;;14.98;14.27;;;14.20;99.90;;;;;;4849106;29;20029;-89
2023/01/24 12:38:49;;;;;;;16.17;14.85;;;13.90;99.90;;;;;;4849509;29;20116;-88
2023/01/24 12:41:35;;;;;;;15.55;14.75;;;13.60;99.90;;;;;;4850388;29;20063;-88
2023/01/24 12:44:37;;;;;;;15.65;14.80;;;13.30;99.90;;;;;;4851552;29;20036;-89
2023/01/24 12:47:22;;;;;;;16.67;15.43;;;13.10;99.90;;;;;;4849735;29;20041;-90
2023/01/24 12:50:09;;;;;;;16.00;14.88;;;12.80;99.90;;;;;;4845905;29;20054;-91
2023/01/24 12:52:50;;;;;;;15.25;14.45;;;13.00;99.90;;;;;;4877997;29;20036;-88
2023/01/24 12:55:47;;;;;;;15.40;14.60;;;13.00;99.90;;;;;;4905460;29;20458;-91
2023/01/24 12:58:30;;;;;;;14.50;13.80;;;13.10;99.90;;;;;;4905191;29;20043;-90
2023/01/24 13:01:16;;;;;;;15.00;14.10;;;13.00;99.90;;;;;;4904802;29;20040;-91
2023/01/24 13:04:12;;;;;;;14.65;13.85;;;13.20;99.90;;;;;;4905420;29;20036;-92
2023/01/24 13:06:57;;;;;;;14.45;13.65;;;13.30;99.90;;;;;;4906291;29;20043;-92
2023/01/24 13:09:55;;;;;;;14.70;13.75;;;13.50;99.90;;;;;;4905326;29;20035;-91
2023/01/24 13:12:29;;;;;;;14.20;13.50;;;13.70;99.90;;;;;;4905241;29;20035;-94
2023/01/24 13:15:05;;;;;;;14.70;14.00;;;13.50;99.90;;;;;;4905295;29;20143;-90
2023/01/24 13:17:55;;;;;;;15.20;14.40;;;13.50;99.90;;;;;;4904969;29;20043;-91
2023/01/24 13:20:28;;;;;;;15.32;14.52;;;13.40;99.90;;;;;;4905409;29;20039;-90
2023/01/24 18:37:56;;;;;;;45.10;26.38;;;9.30;99.90;;;;;;5239330;23;20146;-91
2023/01/24 18:40:23;;;;;;;68.68;37.10;;;9.30;99.90;;;;;;4958188;28;20037;-92
2023/01/24 18:42:49;;;;;;;67.93;34.67;;;9.40;99.90;;;;;;4958097;28;20436;-92
2023/01/24 18:45:16;;;;;;;54.90;30.88;;;9.40;99.90;;;;;;4958046;28;20043;-91
2023/01/24 18:47:43;;;;;;;52.58;30.08;;;9.40;99.90;;;;;;4955046;28;20028;-91
2023/01/24 18:50:10;;;;;;;48.25;30.70;;;9.30;99.90;;;;;;4970792;28;20122;-90
2023/01/24 18:52:36;;;;;;;45.47;28.85;;;9.30;99.90;;;;;;4955039;29;20034;-91
2023/01/24 18:55:04;;;;;;;47.35;29.70;;;9.30;99.90;;;;;;4970705;28;20440;-94
2023/01/24 18:57:30;;;;;;;48.15;30.73;;;9.30;99.90;;;;;;4951605;28;20023;-92
2023/01/24 18:59:57;;;;;;;42.63;28.15;;;9.20;99.90;;;;;;4975599;28;20038;-92
2023/01/24 19:02:23;;;;;;;41.25;28.23;;;9.20;99.90;;;;;;4958335;29;20042;-93
2023/01/24 19:04:50;;;;;;;42.38;29.20;;;9.20;99.90;;;;;;4977240;28;20126;-94
2023/01/24 19:07:17;;;;;;;43.22;27.90;;;9.10;99.90;;;;;;4960636;28;20404;-93
2023/01/24 19:09:43;;;;;;;40.25;26.85;;;9.10;99.90;;;;;;4961177;28;20050;-93
2023/01/24 19:12:13;;;;;;;35.60;24.27;;;9.10;99.90;;;;;;4960722;28;20023;-94
2023/01/24 19:14:39;;;;;;;31.73;23.20;;;9.10;99.90;;;;;;4960711;28;20026;-91
2023/01/24 19:17:08;;;;;;;33.90;22.52;;;9.00;99.90;;;;;;4960702;28;20166;-91
2023/01/24 19:19:34;;;;;;;31.45;21.25;;;9.00;99.90;;;;;;4960483;28;20107;-90
2023/01/24 19:22:03;;;;;;;32.67;22.15;;;9.00;99.90;;;;;;4960288;28;20469;-90
2023/01/24 19:24:32;;;;;;;32.85;22.38;;;9.00;99.90;;;;;;4976532;28;20460;-92
2023/01/24 19:26:58;;;;;;;32.20;23.02;;;9.00;99.90;;;;;;4960376;28;20403;-92
2023/01/24 19:29:26;;;;;;;32.15;22.40;;;9.00;99.90;;;;;;4976912;28;20046;-91
2023/01/24 19:31:52;;;;;;;32.38;23.23;;;9.00;99.90;;;;;;4976769;28;20181;-92
2023/01/24 19:34:19;;;;;;;29.00;22.17;;;8.90;99.90;;;;;;4976241;28;20693;-92
2023/01/24 19:36:46;;;;;;;29.33;21.27;;;8.90;99.90;;;;;;4976200;28;20043;-90
2023/01/24 19:39:13;;;;;;;31.30;22.33;;;8.90;99.90;;;;;;4976508;28;20037;-90
2023/01/24 19:41:39;;;;;;;27.80;21.30;;;8.90;99.90;;;;;;4969630;28;20074;-91
2023/01/24 19:44:06;;;;;;;37.90;23.70;;;8.90;99.90;;;;;;4941615;29;20047;-92
2023/01/24 19:46:33;;;;;;;37.25;23.75;;;8.90;99.90;;;;;;4941532;28;20096;-92
2023/01/24 19:48:59;;;;;;;37.40;22.52;;;8.90;99.90;;;;;;4941663;28;20473;-91
2023/01/24 19:51:26;;;;;;;34.65;24.42;;;8.90;99.90;;;;;;4941976;28;20023;-90
2023/01/24 19:53:53;;;;;;;35.13;23.83;;;8.90;99.90;;;;;;4941689;28;20117;-90
2023/01/24 19:56:19;;;;;;;40.90;24.50;;;8.90;99.90;;;;;;4942253;28;20523;-93
2023/01/24 19:58:46;;;;;;;41.90;26.58;;;8.80;99.90;;;;;;4942055;28;20031;-93
2023/01/24 20:01:20;;;;;;;39.50;26.08;;;8.80;99.90;;;;;;4941778;28;20054;-93
2023/01/24 20:03:51;;;;;;;40.88;27.98;;;8.70;99.90;;;;;;4953492;28;20042;-93
2023/01/24 20:06:21;;;;;;;45.08;27.63;;;8.70;99.90;;;;;;4957737;28;20031;-93
2023/01/24 20:08:53;;;;;;;48.42;28.52;;;8.70;99.90;;;;;;4972768;28;20035;-94
2023/01/24 20:11:22;;;;;;;42.08;28.08;;;8.70;99.90;;;;;;4973760;28;20122;-92
2023/01/24 20:13:49;;;;;;;42.25;27.30;;;8.70;99.90;;;;;;4973239;28;20019;-92
2023/01/24 20:16:21;;;;;;;45.80;29.10;;;8.60;99.90;;;;;;4973522;28;20031;-93
2023/01/24 20:18:52;;;;;;;44.10;28.33;;;8.50;99.90;;;;;;4973014;28;20158;-92
2023/01/24 20:21:19;;;;;;;44.72;28.13;;;8.60;99.90;;;;;;4972883;28;20126;-92
2023/01/24 20:23:53;;;;;;;39.50;27.13;;;8.60;99.90;;;;;;4972995;28;20477;-90
2023/01/24 20:26:20;;;;;;;45.85;28.38;;;8.50;99.90;;;;;;4940911;28;20031;-91
2023/01/24 20:28:47;;;;;;;43.38;28.40;;;8.50;99.90;;;;;;4940701;28;20035;-91
2023/01/24 20:31:14;;;;;;;40.95;28.08;;;8.50;99.90;;;;;;4952320;28;20059;-91
2023/01/24 20:33:41;;;;;;;39.13;27.92;;;8.50;99.90;;;;;;4976598;28;20023;-94
2023/01/24 20:36:15;;;;;;;41.53;27.00;;;8.50;99.90;;;;;;4975077;28;20484;-92
2023/01/24 20:38:44;;;;;;;38.78;26.70;;;8.50;99.90;;;;;;4956519;29;20503;-94
2023/01/24 20:41:16;;;;;;;38.05;25.80;;;8.40;99.90;;;;;;4940391;29;20027;-92
2023/01/24 20:43:45;;;;;;;31.90;23.90;;;8.50;99.90;;;;;;4940527;29;20449;-94
2023/01/24 20:46:20;;;;;;;38.17;27.55;;;8.50;99.90;;;;;;4940392;29;20030;-94
2023/01/24 20:48:52;;;;;;;34.35;24.30;;;8.50;99.90;;;;;;4940364;29;20035;-92
2023/01/24 20:51:19;;;;;;;34.30;24.45;;;8.40;99.90;;;;;;4940332;29;20099;-92
2023/01/24 20:53:46;;;;;;;33.28;24.20;;;8.50;99.90;;;;;;4940336;28;20436;-93
2023/01/24 20:56:22;;;;;;;29.20;22.33;;;8.40;99.90;;;;;;4940155;29;20027;-94
2023/01/24 20:58:56;;;;;;;32.15;22.55;;;8.40;99.90;;;;;;4940243;29;20030;-92
2023/01/24 21:01:25;;;;;;;30.63;20.10;;;8.50;99.90;;;;;;4940421;29;20042;-92
2023/01/24 21:03:52;;;;;;;29.15;21.13;;;8.50;99.90;;;;;;4940367;29;20179;-94
2023/01/24 21:06:23;;;;;;;27.83;20.85;;;8.40;99.90;;;;;;4940282;29;20070;-92
2023/01/24 21:08:57;;;;;;;29.23;19.80;;;8.40;99.90;;;;;;4940091;29;20031;-91
2023/01/24 21:11:26;;;;;;;28.98;20.27;;;8.40;99.90;;;;;;4939808;29;20032;-94
2023/01/24 21:13:59;;;;;;;26.60;19.98;;;8.40;99.90;;;;;;4939728;29;20117;-93
2023/01/24 21:16:30;;;;;;;26.33;20.17;;;8.40;99.90;;;;;;4940202;29;20038;-92
2023/01/24 21:19:00;;;;;;;27.63;19.58;;;8.40;99.90;;;;;;4936532;29;20171;-93
2023/01/24 21:21:29;;;;;;;28.77;19.25;;;8.40;99.90;;;;;;4952386;28;20118;-93
2023/01/24 21:23:58;;;;;;;27.45;18.42;;;8.40;99.90;;;;;;4936595;29;20098;-92
2023/01/24 21:26:25;;;;;;;26.80;18.35;;;8.40;99.90;;;;;;4936748;29;20522;-90
2023/01/24 21:28:53;;;;;;;19.42;16.50;;;8.40;99.90;;;;;;4936926;29;20028;-91
2023/01/24 21:31:22;;;;;;;25.55;17.60;;;8.40;99.90;;;;;;4952586;29;20060;-93
2023/01/24 21:33:49;;;;;;;19.02;15.55;;;8.30;99.90;;;;;;4936833;29;20031;-90
2023/01/24 21:36:21;;;;;;;20.27;16.08;;;8.30;99.90;;;;;;4952648;29;20032;-93
2023/01/24 21:38:50;;;;;;;19.85;15.85;;;8.30;99.90;;;;;;4952715;28;20143;-92
2023/01/24 21:44:08;;;;;;;13.88;12.38;;;8.30;99.90;;;;;;4952552;29;20122;-91
2023/01/24 21:46:36;;;;;;;15.18;11.93;;;8.30;99.90;;;;;;4936702;29;20032;-92
2023/01/24 21:49:06;;;;;;;14.30;11.35;;;8.40;99.90;;;;;;4936448;29;20050;-92
2023/01/24 21:51:39;;;;;;;12.55;11.25;;;8.40;99.90;;;;;;4936402;29;20027;-91
2023/01/24 21:54:13;;;;;;;11.90;10.25;;;8.40;99.90;;;;;;4952536;29;20087;-92
2023/01/24 21:59:32;;;;;;;11.80;9.77;;;8.50;99.90;;;;;;4952180;29;20490;-93
2023/01/24 22:02:02;;;;;;;10.60;9.15;;;8.50;99.90;;;;;;4936291;29;20040;-93
2023/01/24 22:04:30;;;;;;;9.52;8.63;;;8.60;99.90;;;;;;4936623;29;20079;-91
2023/01/24 22:06:58;;;;;;;10.30;9.30;;;8.60;99.90;;;;;;4936295;29;20122;-92
2023/01/24 22:09:25;;;;;;;11.70;10.20;;;8.60;99.90;;;;;;4952079;29;20079;-93
2023/01/24 22:11:53;;;;;;;10.20;9.25;;;8.60;99.90;;;;;;4936237;29;20546;-92
2023/01/24 22:14:29;;;;;;;9.98;9.02;;;8.60;99.90;;;;;;4936398;29;20070;-91
2023/01/24 22:16:58;;;;;;;10.23;9.32;;;8.60;99.90;;;;;;4952478;29;20095;-93
2023/01/24 22:19:28;;;;;;;11.40;10.20;;;8.70;99.90;;;;;;4937104;29;20032;-92
2023/01/24 22:22:18;;;;;;;11.15;10.15;;;8.70;99.90;;;;;;4955440;29;20056;-93
2023/01/24 22:24:51;;;;;;;11.10;10.00;;;8.60;99.90;;;;;;4936417;29;20378;-92
2023/01/24 22:27:21;;;;;;;13.07;10.55;;;8.60;99.90;;;;;;4951747;28;20035;-92
2023/01/24 22:29:51;;;;;;;10.30;9.23;;;8.60;99.90;;;;;;4935721;29;20486;-91
2023/01/24 22:32:20;;;;;;;10.85;9.80;;;8.60;99.90;;;;;;4953659;28;20043;-91
2023/01/24 22:34:48;;;;;;;10.80;9.57;;;8.60;99.90;;;;;;4939615;29;20078;-92
2023/01/24 22:37:26;;;;;;;12.80;8.70;;;8.60;99.90;;;;;;4939355;29;20044;-92
2023/01/24 22:39:54;;;;;;;8.98;8.20;;;8.50;99.90;;;;;;4939564;29;20118;-93
2023/01/24 22:42:23;;;;;;;9.23;8.00;;;8.60;99.90;;;;;;4939452;29;20126;-92
2023/01/24 22:44:52;;;;;;;6.32;5.82;;;8.60;99.90;;;;;;4939862;29;20028;-94
2023/01/24 22:47:19;;;;;;;7.00;6.18;;;8.50;99.90;;;;;;4939960;29;20050;-93
2023/01/24 22:49:47;;;;;;;10.18;6.10;;;8.60;99.90;;;;;;4955113;29;20478;-93
2023/01/24 22:52:14;;;;;;;7.13;6.35;;;8.60;99.90;;;;;;4939200;29;20028;-91
2023/01/24 22:54:41;;;;;;;7.43;6.60;;;8.70;99.90;;;;;;4939280;29;20031;-92
2023/01/24 22:57:08;;;;;;;7.50;6.80;;;8.70;99.90;;;;;;4939144;29;20396;-93
2023/01/24 22:59:35;;;;;;;7.20;6.60;;;8.80;99.90;;;;;;4939267;29;20028;-92
2023/01/24 23:02:03;;;;;;;8.30;7.40;;;8.70;99.90;;;;;;4938995;29;20043;-91
2023/01/24 23:04:29;;;;;;;7.97;7.07;;;8.70;99.90;;;;;;4954903;29;20036;-91
2023/01/24 23:06:57;;;;;;;10.52;7.70;;;8.70;99.90;;;;;;4939313;29;20389;-91
2023/01/24 23:09:24;;;;;;;8.95;6.82;;;8.70;99.90;;;;;;4939115;29;20028;-92
2023/01/24 23:11:50;;;;;;;7.88;7.18;;;8.70;99.90;;;;;;4954990;29;20031;-92
2023/01/24 23:17:12;;;;;;;8.90;8.05;;;8.70;99.90;;;;;;4955093;29;20508;-91
2023/01/24 23:22:34;;;;;;;10.07;7.47;;;8.60;99.90;;;;;;4938790;29;20047;-93
2023/01/24 23:25:02;;;;;;;9.95;7.78;;;8.40;99.90;;;;;;4907110;29;20030;-92
2023/01/24 23:27:32;;;;;;;9.45;8.10;;;8.30;99.90;;;;;;4922941;29;20031;-91
2023/01/24 23:30:36;;;;;;;9.45;8.63;;;8.20;99.90;;;;;;4923002;29;20074;-92
2023/01/24 23:33:32;;;;;;;8.60;7.63;;;8.10;99.90;;;;;;4922740;29;20039;-93
2023/01/24 23:36:00;;;;;;;9.73;7.25;;;8.00;99.90;;;;;;4906818;29;20031;-92
2023/01/24 23:38:31;;;;;;;7.60;6.72;;;7.90;99.90;;;;;;4921489;29;20513;-89
2023/01/24 23:40:58;;;;;;;11.27;7.13;;;7.80;99.90;;;;;;4922609;29;20135;-91
2023/01/24 23:43:24;;;;;;;7.80;6.70;;;7.70;99.90;;;;;;4921906;29;20119;-94
2023/01/24 23:45:51;;;;;;;7.30;6.53;;;7.70;99.90;;;;;;4922490;29;20553;-90
2023/01/24 23:48:18;;;;;;;8.18;6.82;;;7.60;99.90;;;;;;4922428;29;20032;-93
2023/01/24 23:50:53;;;;;;;10.40;7.30;;;7.50;99.90;;;;;;4922543;29;20577;-91
2023/01/24 23:53:23;;;;;;;13.27;7.25;;;7.50;99.90;;;;;;4938192;29;20036;-91
2023/01/24 23:55:50;;;;;;;12.88;7.50;;;7.40;99.90;;;;;;4938502;29;20038;-92
2023/01/24 23:58:17;;;;;;;10.30;7.28;;;7.40;99.90;;;;;;4922702;29;20039;-92
